Time;durP1;ratioP1;P1;durP2;ratioP2;P2;SDS_P1;SDS_P2;PMS_P1;PMS_P2;Temp;Humidity;BMP_temperature;BMP_pressure;BME280_temperature;BME280_humidity;BME280_pressure;Samples;Min_cycle;Max_cycle;Signal;HPM_P1;HPM_P2
2022/02/11 00:00:13;;;;;;;;;48.25;41.50;;;;;5.39;100.00;101827.94;6307426;22;11597;-71
2022/02/11 00:08:42;;;;;;;;;46.50;42.50;;;;;5.39;100.00;101837.00;6307538;22;11498;-72
2022/02/11 00:11:40;;;;;;;;;59.50;48.25;;;;;5.30;100.00;101828.47;6307447;22;11523;-72
2022/02/11 00:14:13;;;;;;;;;44.75;41.25;;;;;5.29;100.00;101829.56;6316659;22;11525;-71
2022/02/11 00:16:41;;;;;;;;;46.25;42.75;;;;;5.35;100.00;101832.28;6316600;22;11505;-72
2022/02/11 00:19:37;;;;;;;;;58.75;47.75;;;;;5.37;100.00;101835.59;6305049;22;11534;-72
2022/02/11 00:22:32;;;;;;;;;59.75;51.25;;;;;5.24;100.00;101840.50;6307048;22;11509;-72
2022/02/11 00:25:00;;;;;;;;;60.50;51.00;;;;;5.26;100.00;101837.47;6316278;22;11495;-72
2022/02/11 00:36:11;;;;;;;;;60.75;50.00;;;;;5.21;100.00;101820.97;6306893;22;11512;-72
2022/02/11 00:39:02;;;;;;;;;61.00;48.25;;;;;5.28;100.00;101816.91;6316751;22;11607;-72
2022/02/11 01:03:05;;;;;;;;;40.00;38.50;;;;;5.41;100.00;101843.03;6316153;22;11526;-72
2022/02/11 01:06:00;;;;;;;;;41.25;34.25;;;;;5.48;99.89;101821.66;6304708;22;11511;-71
2022/02/11 01:08:57;;;;;;;;;41.25;38.75;;;;;5.32;100.00;101827.34;6306831;22;11506;-71
2022/02/11 01:11:56;;;;;;;;;39.25;38.50;;;;;5.48;99.76;101821.66;6304768;22;11545;-71
2022/02/11 01:14:53;;;;;;;;;37.25;36.75;;;;;5.60;98.38;101821.44;6306930;22;11520;-71
2022/02/11 01:17:54;;;;;;;;;27.25;26.75;;;;;5.50;98.22;101815.91;6307068;22;12350;-72
2022/02/11 01:20:59;;;;;;;;;42.25;41.00;;;;;5.46;98.86;101807.38;6306862;22;11499;-71
2022/02/11 01:24:07;;;;;;;;;33.75;33.00;;;;;5.35;99.25;101805.69;6304512;22;11534;-72
2022/02/11 01:26:51;;;;;;;;;42.00;38.00;;;;;5.35;99.55;101799.38;6315797;22;11524;-72
2022/02/11 01:50:49;;;;;;;;;30.00;30.00;;;;;5.23;98.47;101789.47;6273050;22;12366;-72
2022/02/11 01:53:39;;;;;;;;;35.00;35.00;;;;;5.10;99.21;101792.69;6307038;22;11545;-72
2022/02/11 01:56:58;;;;;;;;;32.25;31.00;;;;;5.24;99.10;101799.34;6306697;22;11541;-72
2022/02/11 02:33:40;;;;;;;;;26.75;26.25;;;;;4.89;98.39;101793.69;6308123;22;11488;-72
2022/02/11 02:57:52;;;;;;;;;33.25;31.75;;;;;4.93;98.54;101792.06;6308456;22;11525;-72
2022/02/11 03:01:09;;;;;;;;;31.25;31.25;;;;;4.95;97.52;101787.97;6308059;22;11110;-72
2022/02/11 03:35:13;;;;;;;;;49.00;39.25;;;;;4.55;97.92;101782.25;6307891;22;11594;-72
2022/02/11 03:58:02;;;;;;;;;43.25;35.50;;;;;4.54;97.43;101786.09;6307568;22;12225;-72
2022/02/11 04:22:44;;;;;;;;;28.00;27.25;;;;;4.34;98.14;101757.44;6307106;22;11490;-71
2022/02/11 05:00:11;;;;;;;;;43.50;41.50;;;;;4.10;99.52;101764.41;6307259;22;11545;-72
2022/02/11 05:03:07;;;;;;;;;42.75;41.00;;;;;4.07;99.61;101762.19;6306062;22;11544;-71
2022/02/11 05:05:50;;;;;;;;;54.00;44.25;;;;;4.13;99.48;101764.69;6310198;22;11511;-70
2022/02/11 05:08:45;;;;;;;;;44.00;39.25;;;;;4.12;99.15;101762.22;6306486;22;11509;-72
2022/02/11 05:11:16;;;;;;;;;42.50;40.00;;;;;4.03;99.42;101772.81;6306544;22;11527;-72
2022/02/11 05:13:58;;;;;;;;;46.50;44.00;;;;;4.14;98.90;101763.63;6306641;22;11512;-71
2022/02/11 05:16:54;;;;;;;;;50.00;45.75;;;;;4.14;99.17;101768.25;6306125;22;11520;-72
2022/02/11 05:19:22;;;;;;;;;39.00;38.00;;;;;4.17;98.66;101771.28;6315194;22;11527;-71
2022/02/11 05:22:06;;;;;;;;;48.50;42.75;;;;;4.14;98.49;101768.25;6315522;22;12284;-71
2022/02/11 05:24:34;;;;;;;;;52.50;44.25;;;;;3.99;99.12;101771.72;6339224;22;11564;-71
2022/02/11 05:27:01;;;;;;;;;43.25;41.50;;;;;3.95;99.65;101764.25;6306242;22;11511;-71
2022/02/11 05:29:29;;;;;;;;;48.50;43.25;;;;;4.05;99.29;101765.16;6315404;22;11563;-71
2022/02/11 05:31:57;;;;;;;;;50.50;44.00;;;;;4.04;99.66;101773.63;6315315;22;11482;-71
2022/02/11 05:34:26;;;;;;;;;59.75;48.50;;;;;4.04;99.79;101779.13;6315293;22;11609;-71
2022/02/11 05:37:24;;;;;;;;;60.50;49.75;;;;;4.02;99.71;101778.56;6304135;22;11526;-71
2022/02/11 05:40:20;;;;;;;;;53.00;45.00;;;;;3.92;100.00;101790.25;6306384;22;11508;-71
2022/02/11 05:43:15;;;;;;;;;56.67;48.00;;;;;3.95;100.00;101781.50;6304805;22;12319;-71
2022/02/11 05:46:11;;;;;;;;;45.50;43.25;;;;;4.00;99.66;101786.22;6306407;22;11501;-72
2022/02/11 05:48:39;;;;;;;;;47.25;44.50;;;;;3.98;99.64;101780.16;6315462;22;11498;-72
2022/02/11 05:51:35;;;;;;;;;48.00;43.50;;;;;3.98;99.65;101780.16;6306456;22;11560;-72
2022/02/11 05:54:25;;;;;;;;;41.75;39.75;;;;;4.00;99.34;101778.81;6315114;22;11523;-72
2022/02/11 05:56:54;;;;;;;;;49.75;43.75;;;;;3.98;99.72;101783.72;6315586;22;11513;-72
2022/02/11 05:59:24;;;;;;;;;49.00;43.25;;;;;4.04;99.83;101785.41;6313878;22;11502;-73
2022/02/11 06:01:52;;;;;;;;;54.75;48.75;;;;;4.04;99.50;101779.94;6315669;22;11509;-73
2022/02/11 06:04:23;;;;;;;;;42.00;40.25;;;;;4.10;99.75;101778.91;6314262;22;11592;-73
2022/02/11 06:06:52;;;;;;;;;60.50;47.50;;;;;3.99;99.58;101779.91;6306426;22;11535;-73
2022/02/11 06:09:20;;;;;;;;;45.50;42.25;;;;;4.01;99.72;101772.25;6315646;22;11531;-72
2022/02/11 06:11:47;;;;;;;;;44.75;41.75;;;;;4.10;99.76;101762.47;6315391;22;11547;-72
2022/02/11 06:14:18;;;;;;;;;35.00;35.00;;;;;3.99;99.83;101768.97;6315268;22;12310;-74
2022/02/11 06:16:45;;;;;;;;;53.50;45.00;;;;;4.03;99.62;101775.56;6315520;22;11621;-72
2022/02/11 06:19:16;;;;;;;;;45.25;42.50;;;;;4.09;99.71;101768.22;6315429;22;11492;-73
2022/02/11 06:21:43;;;;;;;;;46.25;43.00;;;;;4.13;99.49;101761.94;6315596;22;11510;-70
2022/02/11 06:24:11;;;;;;;;;53.75;44.50;;;;;4.08;99.31;101761.91;6315354;22;11533;-74
2022/02/11 06:26:40;;;;;;;;;45.50;40.25;;;;;4.19;99.41;101746.38;6313318;22;11534;-73
2022/02/11 06:29:36;;;;;;;;;48.25;43.00;;;;;4.18;99.02;101756.50;6306816;22;11521;-73
2022/02/11 06:32:19;;;;;;;;;44.25;41.25;;;;;4.09;99.63;101757.28;6315808;22;11533;-75
2022/02/11 06:34:46;;;;;;;;;50.00;45.00;;;;;4.16;99.32;101755.97;6315548;22;11497;-75
2022/02/11 06:37:23;;;;;;;;;59.50;50.50;;;;;4.38;99.17;101758.59;6315420;22;11510;-75
2022/02/11 06:40:19;;;;;;;;;46.25;43.00;;;;;4.45;98.67;101766.59;6303404;22;11534;-76
2022/02/11 06:42:46;;;;;;;;;45.00;43.00;;;;;4.41;98.35;101762.72;6315412;22;11488;-73
2022/02/11 06:45:28;;;;;;;;;41.00;37.50;;;;;4.43;97.85;101761.34;6306578;22;12395;-74
2022/02/11 06:48:19;;;;;;;;;46.50;43.75;;;;;4.50;97.33;101752.91;6308627;22;11581;-74
2022/02/11 06:50:55;;;;;;;;;47.00;44.00;;;;;4.46;97.55;101752.63;6316403;22;11516;-75
2022/02/11 06:53:51;;;;;;;;;53.50;42.00;;;;;4.41;97.46;101752.56;6307551;22;11516;-74
2022/02/11 06:56:19;;;;;;;;;47.00;43.75;;;;;4.34;97.76;101751.16;6317246;22;11491;-74
2022/02/11 06:59:15;;;;;;;;;47.00;43.25;;;;;4.41;98.00;101759.97;6307536;22;11559;-74
2022/02/11 07:02:18;;;;;;;;;34.50;34.00;;;;;4.50;98.11;101749.34;6308063;22;11569;-75
2022/02/11 07:05:14;;;;;;;;;43.50;39.50;;;;;4.51;98.06;101751.81;6307702;22;11521;-74
2022/02/11 07:08:10;;;;;;;;;38.00;37.25;;;;;4.60;97.61;101750.25;6305728;22;11504;-76
2022/02/11 07:11:06;;;;;;;;;40.50;38.25;;;;;4.55;97.81;101747.47;6307649;22;11541;-75
2022/02/11 07:14:02;;;;;;;;;62.25;52.50;;;;;4.70;96.97;101744.81;6308186;22;11489;-75
2022/02/11 07:16:57;;;;;;;;;95.33;79.67;;;;;4.66;96.72;101738.19;6307856;22;11510;-75
2022/02/11 07:19:40;;;;;;;;;68.00;56.67;;;;;4.75;96.84;101744.00;6316770;22;8779;-73
2022/02/11 07:22:35;;;;;;;;;50.75;44.25;;;;;4.77;96.22;101738.28;6307263;22;11546;-76
2022/02/11 07:25:07;;;;;;;;;53.00;43.75;;;;;4.76;96.52;101744.84;6316615;22;12226;-73
2022/02/11 07:28:03;;;;;;;;;52.75;46.25;;;;;4.79;96.44;101742.38;6307740;22;12295;-74
2022/02/11 07:31:01;;;;;;;;;45.25;39.50;;;;;4.74;96.89;101737.69;6307452;22;12211;-74
2022/02/11 07:33:56;;;;;;;;;44.50;40.00;;;;;4.95;96.06;101749.59;6307180;22;12304;-74
2022/02/11 07:36:37;;;;;;;;;42.75;39.75;;;;;4.90;95.62;101744.06;6308018;22;11527;-74
2022/02/11 07:39:05;;;;;;;;;37.75;37.75;;;;;4.95;95.86;101740.53;6307446;22;11543;-74
2022/02/11 07:41:33;;;;;;;;;47.50;44.00;;;;;4.95;96.49;101746.03;6316804;22;11504;-73
2022/02/11 07:44:02;;;;;;;;;31.25;31.25;;;;;5.01;96.14;101743.03;6307586;22;11584;-75
2022/02/11 07:46:31;;;;;;;;;55.75;44.25;;;;;5.15;95.38;101746.13;6316712;22;11507;-75
2022/02/11 07:49:03;;;;;;;;;38.75;38.25;;;;;5.16;94.91;101739.53;6307585;22;11609;-74
2022/02/11 07:51:32;;;;;;;;;33.00;32.00;;;;;5.17;94.38;101732.13;6316793;22;11509;-74
2022/02/11 07:53:59;;;;;;;;;26.25;24.25;;;;;5.25;94.65;101737.91;6316891;22;11488;-75
2022/02/11 07:56:28;;;;;;;;;39.00;35.50;;;;;5.28;93.92;101734.63;6316201;22;11524;-76
2022/02/11 07:58:55;;;;;;;;;39.25;39.00;;;;;5.24;94.44;101732.69;6316521;22;11532;-75
2022/02/11 08:01:23;;;;;;;;;36.25;33.25;;;;;5.30;94.19;101726.97;6316679;22;11542;-75
2022/02/11 08:04:00;;;;;;;;;36.00;33.75;;;;;5.32;93.99;101726.69;6316544;22;11515;-75
2022/02/11 08:06:32;;;;;;;;;33.75;32.25;;;;;5.51;93.63;101729.72;6311425;22;11511;-75
2022/02/11 08:09:09;;;;;;;;;37.25;36.50;;;;;5.57;92.52;101728.66;6338592;22;11505;-75
2022/02/11 08:11:37;;;;;;;;;36.25;32.00;;;;;5.67;92.48;101730.56;6307749;22;11502;-75
2022/02/11 08:14:34;;;;;;;;;29.75;29.75;;;;;5.68;92.84;101730.34;6307396;22;11579;-74
2022/02/11 08:17:02;;;;;;;;;29.50;26.75;;;;;5.77;92.20;101720.44;6308694;22;11495;-75
2022/02/11 08:19:30;;;;;;;;;35.25;34.75;;;;;5.88;91.87;101720.44;6312273;22;11476;-75
2022/02/11 08:22:04;;;;;;;;;32.50;32.50;;;;;5.97;91.83;101705.91;6306988;22;11552;-76
2022/02/11 08:24:33;;;;;;;;;27.00;23.00;;;;;6.00;90.97;101713.63;6316135;22;11509;-76
2022/02/11 08:27:09;;;;;;;;;31.00;29.25;;;;;5.91;91.18;101707.03;6316357;22;11464;-75
2022/02/11 08:29:39;;;;;;;;;27.25;27.25;;;;;6.08;90.61;101712.25;6306953;22;11546;-76
2022/02/11 08:32:09;;;;;;;;;31.00;31.00;;;;;6.12;90.40;101711.41;6307409;22;11585;-76
2022/02/11 08:34:39;;;;;;;;;30.50;30.50;;;;;6.23;90.35;101706.72;6314914;22;11533;-77
2022/02/11 08:37:07;;;;;;;;;24.50;22.50;;;;;6.31;90.29;101700.69;6314625;22;11481;-74
2022/02/11 08:39:38;;;;;;;;;24.75;24.75;;;;;6.35;91.21;101699.00;6306089;22;11513;-75
2022/02/11 08:42:31;;;;;;;;;27.50;27.50;;;;;6.47;90.33;101700.63;6305471;22;11523;-74
2022/02/11 08:45:27;;;;;;;;;24.50;24.50;;;;;6.71;89.76;101690.66;6304855;22;11696;-73
2022/02/11 08:48:23;;;;;;;;;20.50;19.75;;;;;6.99;89.06;101689.19;6307255;22;11622;-75
2022/02/11 08:51:04;;;;;;;;;19.50;18.75;;;;;6.74;89.34;101686.53;6306436;22;12234;-75
2022/02/11 08:54:00;;;;;;;;;21.00;21.00;;;;;7.03;87.56;101687.50;6304440;22;11487;-75
2022/02/11 08:56:41;;;;;;;;;10.75;10.75;;;;;6.94;87.98;101681.75;6306925;22;12201;-76
2022/02/11 08:59:18;;;;;;;;;22.75;19.50;;;;;7.16;86.49;101683.31;6315378;22;12263;-76
2022/02/11 09:01:45;;;;;;;;;26.75;26.75;;;;;7.30;86.91;101678.84;6315651;22;12284;-76
2022/02/11 09:04:13;;;;;;;;;19.75;19.75;;;;;7.25;85.65;101668.66;6315842;22;11465;-74
2022/02/11 09:07:09;;;;;;;;;16.00;15.25;;;;;7.28;85.80;101667.25;6306166;22;11513;-76
2022/02/11 09:09:39;;;;;;;;;16.50;15.75;;;;;7.23;86.05;101664.56;6315923;22;11468;-76
2022/02/11 09:12:07;;;;;;;;;16.00;16.00;;;;;7.24;85.09;101657.94;6288756;22;11522;-76
2022/02/11 09:15:03;;;;;;;;;21.50;21.50;;;;;7.60;84.89;101664.03;6305904;22;12221;-76
2022/02/11 09:17:59;;;;;;;;;19.25;19.25;;;;;7.99;84.00;101652.13;6306638;22;11444;-76
2022/02/11 09:20:54;;;;;;;;;22.00;19.00;;;;;7.95;83.37;101645.53;6306757;22;11423;-76
2022/02/11 09:23:50;;;;;;;;;19.75;19.75;;;;;8.00;83.45;101640.00;6306312;22;11546;-75
2022/02/11 09:26:18;;;;;;;;;12.75;12.75;;;;;8.07;83.42;101621.19;6306443;22;11633;-75
2022/02/11 09:28:54;;;;;;;;;20.25;18.75;;;;;8.21;82.27;101621.34;6315081;22;11124;-76
2022/02/11 09:31:27;;;;;;;;;25.00;18.00;;;;;8.43;81.41;101618.88;6316019;22;11439;-76
2022/02/11 09:34:03;;;;;;;;;17.75;17.75;;;;;8.72;80.50;101615.22;6315503;22;11525;-77
2022/02/11 09:36:58;;;;;;;;;15.75;15.50;;;;;8.57;80.69;101621.75;6305686;22;11251;-74
2022/02/11 09:39:54;;;;;;;;;12.00;12.00;;;;;8.95;77.59;101619.88;6306139;22;11561;-76
2022/02/11 09:42:23;;;;;;;;;13.50;13.50;;;;;8.89;77.12;101618.28;6306593;22;11121;-74
2022/02/11 09:44:51;;;;;;;;;10.50;10.50;;;;;9.24;75.29;101613.38;6315062;22;11104;-74
2022/02/11 09:47:48;;;;;;;;;11.00;11.00;;;;;8.98;75.14;101611.00;6306404;22;11024;-75
2022/02/11 09:50:14;;;;;;;;;12.25;12.00;;;;;9.16;74.87;101607.41;6315764;22;10880;-75
2022/02/11 09:52:55;;;;;;;;;8.25;8.25;;;;;9.12;75.52;101597.25;6306097;22;10829;-74
2022/02/11 09:55:32;;;;;;;;;12.50;10.00;;;;;9.37;73.83;101588.59;6339941;22;10808;-74
2022/02/11 09:58:29;;;;;;;;;13.00;12.00;;;;;9.22;73.87;101593.56;6305383;22;10885;-76
2022/02/11 10:01:26;;;;;;;;;13.25;13.25;;;;;9.31;73.29;101580.69;6306495;22;10739;-73
2022/02/11 10:04:10;;;;;;;;;6.75;6.75;;;;;9.30;74.40;101582.66;6314276;22;11063;-75
2022/02/11 10:07:06;;;;;;;;;12.00;12.00;;;;;9.46;73.01;101566.66;6304081;22;10628;-73
2022/02/11 10:10:02;;;;;;;;;10.50;8.00;;;;;9.39;72.99;101566.22;6306359;22;10968;-73
2022/02/11 10:12:30;;;;;;;;;10.75;10.75;;;;;9.52;73.20;101561.88;6315815;22;10678;-72
2022/02/11 10:15:26;;;;;;;;;13.00;13.00;;;;;9.53;72.63;101567.09;6306229;22;10772;-72
2022/02/11 10:18:08;;;;;;;;;11.50;11.50;;;;;9.51;72.87;101555.53;6306456;22;10691;-73
2022/02/11 10:20:36;;;;;;;;;11.25;11.25;;;;;9.58;73.66;101549.59;6307323;22;10732;-74
2022/02/11 10:23:25;;;;;;;;;7.75;7.75;;;;;9.48;74.22;101553.34;6341981;22;10662;-74
2022/02/11 10:26:10;;;;;;;;;3.50;1.75;;;;;9.57;74.03;101536.91;6316337;22;10573;-74
2022/02/11 10:28:40;;;;;;;;;6.00;6.00;;;;;9.59;74.48;101531.91;6317833;22;10594;-72
2022/02/11 10:31:12;;;;;;;;;8.25;8.00;;;;;9.67;73.92;101539.50;6316844;22;10691;-72
2022/02/11 10:33:56;;;;;;;;;9.00;8.75;;;;;9.79;73.86;101527.94;6317513;22;10384;-73
2022/02/11 10:36:30;;;;;;;;;7.00;7.00;;;;;9.84;73.66;101525.09;6317000;22;10534;-74
2022/02/11 10:39:29;;;;;;;;;7.25;7.25;;;;;10.20;72.20;101519.69;6307984;22;10682;-76
2022/02/11 10:41:59;;;;;;;;;12.25;12.00;;;;;10.69;70.31;101521.66;6317169;22;10472;-75
2022/02/11 10:44:29;;;;;;;;;5.00;5.00;;;;;10.77;67.99;101518.16;6317056;22;10483;-76
2022/02/11 10:47:07;;;;;;;;;4.75;4.75;;;;;10.99;68.14;101509.06;6317640;22;9955;-74
2022/02/11 10:49:37;;;;;;;;;8.25;8.25;;;;;11.08;68.08;101514.66;6317204;22;10153;-71
2022/02/11 10:52:26;;;;;;;;;7.75;7.75;;;;;11.20;66.16;101501.09;6307816;22;10279;-71
2022/02/11 10:54:56;;;;;;;;;1.00;1.00;;;;;11.24;66.35;101513.16;6308295;22;9931;-71
2022/02/11 10:57:27;;;;;;;;;5.00;5.00;;;;;11.32;65.96;101501.31;6317227;22;9932;-71
2022/02/11 11:00:24;;;;;;;;;4.75;4.75;;;;;11.47;65.54;101499.28;6308139;22;10130;-72
2022/02/11 11:02:57;;;;;;;;;4.50;4.50;;;;;11.75;64.94;101494.38;6316166;22;9972;-71
2022/02/11 11:05:25;;;;;;;;;5.50;5.50;;;;;11.70;65.24;101492.56;6315903;22;9865;-72
2022/02/11 11:08:00;;;;;;;;;4.25;4.25;;;;;12.18;62.13;101497.31;6291403;22;9628;-72
2022/02/11 11:10:28;;;;;;;;;4.25;4.25;;;;;11.69;63.83;101491.75;6305643;22;9720;-71
2022/02/11 11:12:57;;;;;;;;;7.00;6.25;;;;;12.29;64.31;101487.59;6316193;22;9751;-72
2022/02/11 11:15:31;;;;;;;;;12.00;11.00;;;;;12.35;62.67;101508.50;6306606;22;9661;-73
2022/02/11 11:18:05;;;;;;;;;3.75;3.75;;;;;12.25;64.21;101494.91;6317072;22;9618;-72
2022/02/11 11:21:02;;;;;;;;;7.00;6.00;;;;;12.01;64.19;101486.19;6306476;22;10192;-70
2022/02/11 11:23:32;;;;;;;;;4.25;4.25;;;;;12.03;65.51;101486.69;6316084;22;9553;-70
2022/02/11 11:26:06;;;;;;;;;4.00;4.00;;;;;12.18;63.17;101483.47;6308011;22;9337;-71
2022/02/11 11:29:08;;;;;;;;;4.00;4.00;;;;;12.35;62.83;101477.16;6307304;22;9543;-71
2022/02/11 11:31:58;;;;;;;;;4.50;4.50;;;;;12.63;62.40;101492.34;6307623;22;9487;-70
2022/02/11 11:34:29;;;;;;;;;4.75;4.75;;;;;11.95;65.04;101480.78;6316186;22;9421;-71
2022/02/11 11:37:08;;;;;;;;;5.00;5.00;;;;;11.92;64.89;101475.06;6315085;22;9347;-72
2022/02/11 11:39:38;;;;;;;;;4.50;4.50;;;;;11.41;66.63;101471.72;6316603;22;9494;-71
2022/02/11 11:42:17;;;;;;;;;4.50;4.50;;;;;11.41;66.58;101463.41;6316511;22;9958;-71
2022/02/11 11:44:49;;;;;;;;;4.75;4.75;;;;;11.05;67.70;101465.47;6306786;22;9815;-71
2022/02/11 11:47:31;;;;;;;;;4.25;4.25;;;;;10.94;68.00;101472.38;6316965;22;9697;-71
2022/02/11 11:49:59;;;;;;;;;6.50;6.25;;;;;10.74;69.08;101457.94;6316582;22;10554;-72
2022/02/11 11:52:50;;;;;;;;;4.50;4.50;;;;;10.50;70.35;101451.84;6316452;22;10046;-72
2022/02/11 11:55:22;;;;;;;;;7.75;7.75;;;;;10.49;70.56;101458.50;6316813;22;10250;-72
2022/02/11 11:57:52;;;;;;;;;7.75;7.75;;;;;10.39;70.94;101461.50;6315408;22;10116;-72
2022/02/11 12:00:36;;;;;;;;;3.50;3.50;;;;;10.47;70.60;101458.00;6316537;22;10039;-71
2022/02/11 12:03:10;;;;;;;;;1.50;1.50;;;;;10.30;71.22;101453.13;6316329;22;10208;-71
2022/02/11 12:05:45;;;;;;;;;6.25;6.25;;;;;10.46;71.55;101446.13;6307533;22;10169;-72
2022/02/11 12:08:16;;;;;;;;;6.25;6.25;;;;;10.51;71.69;101448.78;6316400;22;10413;-71
2022/02/11 12:10:46;;;;;;;;;7.00;7.00;;;;;10.32;72.63;101447.28;6314892;22;10199;-72
2022/02/11 12:13:19;;;;;;;;;6.25;6.25;;;;;10.37;72.21;101447.19;6316439;22;10337;-71
2022/02/11 12:15:48;;;;;;;;;6.00;6.00;;;;;10.17;72.80;101452.00;6316504;22;10414;-71
2022/02/11 12:18:37;;;;;;;;;7.00;7.00;;;;;10.46;72.12;101439.78;6307429;22;10365;-72
2022/02/11 12:21:34;;;;;;;;;9.75;9.75;;;;;10.19;72.99;101435.91;6306824;22;10393;-73
2022/02/11 12:27:49;;;;;;;;;8.00;8.00;;;;;10.44;72.23;101425.47;6306746;22;10306;-72
2022/02/11 12:30:31;;;;;;;;;7.00;7.00;;;;;10.61;71.07;101424.78;6307532;22;10238;-73
2022/02/11 12:33:20;;;;;;;;;9.00;9.00;;;;;10.62;71.21;101426.41;6308062;22;10262;-72
2022/02/11 12:35:50;;;;;;;;;8.50;8.50;;;;;10.62;71.03;101420.88;6316449;22;10382;-71
2022/02/11 12:38:17;;;;;;;;;11.25;11.25;;;;;10.30;71.88;101422.72;6316875;22;10260;-72
2022/02/11 12:40:45;;;;;;;;;7.00;6.75;;;;;10.58;71.27;101423.44;6316512;22;10328;-71
2022/02/11 12:43:13;;;;;;;;;8.50;8.25;;;;;10.40;71.84;101416.13;6317537;22;10390;-71
2022/02/11 12:45:43;;;;;;;;;0.00;0.00;;;;;10.49;72.14;101417.84;6315502;22;10306;-72
2022/02/11 12:48:14;;;;;;;;;10.75;9.75;;;;;10.60;71.55;101412.91;6317551;22;10163;-72
2022/02/11 12:50:45;;;;;;;;;10.00;9.25;;;;;10.33;72.29;101411.03;6316578;22;10171;-72
2022/02/11 12:53:16;;;;;;;;;8.00;8.00;;;;;10.46;72.13;101403.81;6316086;22;10277;-72
2022/02/11 12:55:50;;;;;;;;;3.00;3.00;;;;;10.44;70.96;101401.38;6316434;22;10099;-72
2022/02/11 12:58:33;;;;;;;;;7.00;7.00;;;;;10.53;70.90;101401.44;6305230;22;11123;-71
2022/02/11 13:01:01;;;;;;;;;7.00;7.00;;;;;10.53;71.54;101407.78;6313970;22;10195;-72
2022/02/11 13:03:30;;;;;;;;;7.25;7.25;;;;;10.53;71.30;101406.97;6306925;22;10178;-72
2022/02/11 13:06:19;;;;;;;;;7.00;7.00;;;;;10.37;72.21;101402.94;6332467;22;10244;-71
2022/02/11 13:09:18;;;;;;;;;8.00;8.00;;;;;10.44;71.88;101408.88;6306378;22;10080;-73
2022/02/11 13:12:14;;;;;;;;;7.25;7.25;;;;;10.39;72.11;101404.25;6307204;22;10281;-72
2022/02/11 13:14:44;;;;;;;;;3.75;3.75;;;;;10.65;74.22;101398.91;6330543;22;11085;-72
2022/02/11 13:17:45;;;;;;;;;2.50;2.50;;;;;10.68;71.43;101394.72;6306450;22;10465;-73
2022/02/11 13:20:44;;;;;;;;;6.75;6.75;;;;;10.74;71.91;101391.53;6306693;22;10047;-72
2022/02/11 13:23:42;;;;;;;;;6.75;6.75;;;;;10.82;69.87;101401.84;6304170;22;10087;-73
2022/02/11 13:26:38;;;;;;;;;5.25;5.25;;;;;10.80;68.93;101397.72;6306245;22;9897;-73
2022/02/11 13:29:34;;;;;;;;;11.25;10.25;;;;;10.88;69.95;101396.16;6307102;22;10054;-73
2022/02/11 13:32:01;;;;;;;;;11.25;11.25;;;;;10.82;69.82;101398.25;6340349;22;10326;-72
2022/02/11 13:35:02;;;;;;;;;6.25;6.25;;;;;11.22;68.46;101403.84;6305639;22;10682;-73
2022/02/11 13:37:49;;;;;;;;;10.00;10.00;;;;;10.96;69.24;101401.75;6306412;22;10195;-73
2022/02/11 13:40:25;;;;;;;;;12.00;9.50;;;;;11.02;69.65;101405.19;6315085;22;10065;-71
2022/02/11 13:42:58;;;;;;;;;9.25;9.25;;;;;10.92;69.78;101402.69;6315545;22;10035;-71
2022/02/11 13:46:02;;;;;;;;;10.50;10.25;;;;;11.06;69.43;101404.25;6306004;22;9961;-71
2022/02/11 13:49:05;;;;;;;;;12.00;11.00;;;;;11.01;69.93;101403.56;6306535;22;10030;-73
2022/02/11 13:55:20;;;;;;;;;14.25;14.25;;;;;10.62;71.52;101393.22;6306415;22;10295;-72
2022/02/11 13:57:47;;;;;;;;;4.75;4.75;;;;;10.60;71.36;101393.53;6315387;22;10389;-72
2022/02/11 14:00:36;;;;;;;;;11.50;11.50;;;;;10.34;72.70;101396.06;6315401;22;10340;-73
2022/02/11 14:03:05;;;;;;;;;8.50;8.50;;;;;10.36;73.23;101398.53;6315539;22;10511;-72
2022/02/11 14:06:01;;;;;;;;;12.25;12.25;;;;;10.24;73.97;101393.56;6304787;22;10122;-71
2022/02/11 14:08:56;;;;;;;;;13.75;12.00;;;;;10.09;75.11;101399.38;6323170;22;10159;-71
2022/02/11 14:11:52;;;;;;;;;8.25;8.25;;;;;10.18;74.87;101400.28;6323481;22;10571;-73
2022/02/11 14:14:26;;;;;;;;;14.25;14.25;;;;;9.92;76.14;101397.28;6315649;22;10462;-73
2022/02/11 14:16:58;;;;;;;;;11.50;11.50;;;;;10.01;75.27;101400.94;6315813;22;10555;-72
2022/02/11 14:19:27;;;;;;;;;14.00;14.00;;;;;10.01;75.81;101396.22;6315130;22;10463;-72
2022/02/11 14:22:01;;;;;;;;;13.00;12.00;;;;;9.77;77.03;101400.38;6314998;22;10416;-72
2022/02/11 14:24:57;;;;;;;;;16.75;16.50;;;;;9.83;77.17;101405.47;6305804;22;10439;-72
2022/02/11 14:27:25;;;;;;;;;14.75;14.75;;;;;9.86;76.95;101401.28;6315240;22;10738;-71
2022/02/11 14:29:53;;;;;;;;;14.00;11.00;;;;;9.93;77.37;101415.50;6314671;22;11007;-72
2022/02/11 14:32:26;;;;;;;;;12.25;12.25;;;;;9.86;77.42;101415.91;6315437;22;10714;-71
2022/02/11 14:34:54;;;;;;;;;14.50;14.25;;;;;9.52;78.76;101401.69;6304769;22;10577;-71
2022/02/11 14:37:21;;;;;;;;;12.50;12.50;;;;;9.56;78.06;101400.78;6313900;22;11424;-72
2022/02/11 14:39:50;;;;;;;;;11.00;11.00;;;;;9.49;78.76;101400.34;6314997;22;10731;-72
2022/02/11 14:42:22;;;;;;;;;11.50;11.50;;;;;9.57;78.90;101407.94;6315269;22;10499;-72
2022/02/11 14:44:51;;;;;;;;;6.25;6.25;;;;;9.30;79.50;101405.97;6315106;22;10723;-72
2022/02/11 14:47:18;;;;;;;;;8.00;6.75;;;;;9.44;79.50;101414.28;6315275;22;10518;-73
2022/02/11 14:49:51;;;;;;;;;14.25;14.25;;;;;9.37;79.93;101409.16;6306342;22;10942;-72
2022/02/11 14:52:19;;;;;;;;;10.00;10.00;;;;;9.46;79.36;101420.31;6315690;22;10753;-72
2022/02/11 14:54:51;;;;;;;;;12.75;12.75;;;;;9.16;80.56;101414.22;6314937;22;10655;-72
2022/02/11 14:57:34;;;;;;;;;14.00;14.00;;;;;9.29;80.21;101415.38;6304638;22;10579;-72
2022/02/11 15:00:05;;;;;;;;;18.00;18.00;;;;;9.26;80.70;101413.22;6313910;22;10852;-71
2022/02/11 15:02:57;;;;;;;;;14.00;14.00;;;;;9.48;80.38;101420.81;6305748;22;10811;-73
2022/02/11 15:05:52;;;;;;;;;12.75;11.75;;;;;9.50;80.17;101423.25;6305351;22;10800;-71
2022/02/11 15:08:48;;;;;;;;;13.25;13.25;;;;;9.53;80.17;101417.97;6306122;22;10899;-72
2022/02/11 15:11:17;;;;;;;;;17.75;17.75;;;;;9.48;80.44;101420.81;6306505;22;10721;-71
2022/02/11 15:14:13;;;;;;;;;14.00;14.00;;;;;9.42;80.08;101433.88;6306203;22;10581;-72
2022/02/11 15:17:08;;;;;;;;;10.50;10.50;;;;;9.50;80.27;101429.59;6306091;22;10944;-71
2022/02/11 15:20:05;;;;;;;;;15.00;15.00;;;;;9.31;80.72;101432.47;6306906;22;10758;-71
2022/02/11 15:22:52;;;;;;;;;17.00;16.75;;;;;9.36;80.91;101434.31;6306707;22;10529;-71
2022/02/11 15:25:21;;;;;;;;;16.25;16.25;;;;;9.32;80.98;101441.56;6314950;22;10734;-71
2022/02/11 15:27:50;;;;;;;;;18.00;18.00;;;;;9.31;81.06;101437.97;6315102;22;10748;-73
2022/02/11 15:30:22;;;;;;;;;15.00;15.00;;;;;9.33;80.98;101448.72;6338707;22;10720;-72
2022/02/11 15:32:54;;;;;;;;;14.75;14.75;;;;;9.16;81.42;101439.06;6313594;22;10630;-71
2022/02/11 15:35:25;;;;;;;;;15.00;14.25;;;;;9.16;81.72;101441.81;6306598;22;10648;-72
2022/02/11 15:38:08;;;;;;;;;14.50;14.50;;;;;9.05;82.20;101445.09;6306965;22;10857;-74
2022/02/11 15:40:36;;;;;;;;;21.00;19.75;;;;;9.02;82.38;101452.00;6306264;22;10681;-73
2022/02/11 15:43:04;;;;;;;;;14.50;13.75;;;;;9.04;82.34;101449.75;6314062;22;10810;-71
2022/02/11 15:45:32;;;;;;;;;16.50;16.50;;;;;8.99;82.54;101452.63;6315806;22;10722;-71
2022/02/11 15:48:04;;;;;;;;;19.25;19.25;;;;;8.99;82.54;101451.81;6316620;22;10719;-72
2022/02/11 15:50:32;;;;;;;;;20.00;18.75;;;;;8.99;83.13;101444.34;6307252;22;10965;-72
2022/02/11 15:53:16;;;;;;;;;23.75;23.75;;;;;8.76;83.18;101448.03;6304150;22;11011;-72
2022/02/11 15:55:56;;;;;;;;;24.50;24.50;;;;;8.76;83.54;101450.78;6315083;22;10814;-72
2022/02/11 15:58:24;;;;;;;;;23.00;23.00;;;;;8.69;84.22;101453.13;6306085;22;10838;-72
2022/02/11 16:00:53;;;;;;;;;20.50;20.50;;;;;8.64;83.88;101457.56;6311499;22;11142;-72
2022/02/11 16:03:26;;;;;;;;;18.00;17.75;;;;;8.57;84.08;101459.88;6314137;22;11525;-71
2022/02/11 16:06:00;;;;;;;;;26.50;23.00;;;;;8.58;84.18;101467.03;6310700;22;11040;-73